sensor_id;sensor_type;location;lat;lon;timestamp;pressure;altitude;pressure_sealevel;temperature;humidity
62600;BME280;48671;48.922;2.346;2023-03-01T00:01:14;102540.09;;;3.46;43.60
62600;BME280;48671;48.922;2.346;2023-03-01T00:03:41;102547.88;;;3.49;43.97
62600;BME280;48671;48.922;2.346;2023-03-01T00:06:06;102522.63;;;3.30;44.14
62600;BME280;48671;48.922;2.346;2023-03-01T00:08:32;102551.13;;;3.39;44.06
62600;BME280;48671;48.922;2.346;2023-03-01T00:11:10;102532.91;;;3.28;43.49
62600;BME280;48671;48.922;2.346;2023-03-01T00:13:37;102545.88;;;3.35;43.64
62600;BME280;48671;48.922;2.346;2023-03-01T00:16:08;102531.97;;;3.26;44.49
62600;BME280;48671;48.922;2.346;2023-03-01T00:18:34;102539.75;;;3.29;44.01
62600;BME280;48671;48.922;2.346;2023-03-01T00:20:59;102533.69;;;3.26;44.80
62600;BME280;48671;48.922;2.346;2023-03-01T00:23:25;102542.34;;;3.29;44.44
62600;BME280;48671;48.922;2.346;2023-03-01T00:25:51;102535.44;;;3.27;44.75
62600;BME280;48671;48.922;2.346;2023-03-01T00:28:17;102533.66;;;3.24;44.35
62600;BME280;48671;48.922;2.346;2023-03-01T00:30:42;102532.88;;;3.27;44.47
62600;BME280;48671;48.922;2.346;2023-03-01T00:33:08;102542.41;;;3.33;44.76
62600;BME280;48671;48.922;2.346;2023-03-01T00:35:34;102536.19;;;3.23;44.60
62600;BME280;48671;48.922;2.346;2023-03-01T00:37:59;102538.06;;;3.30;44.67
62600;BME280;48671;48.922;2.346;2023-03-01T00:40:26;102544.03;;;3.27;44.53
62600;BME280;48671;48.922;2.346;2023-03-01T00:42:52;102535.28;;;3.19;44.79
62600;BME280;48671;48.922;2.346;2023-03-01T00:45:17;102531.75;;;3.16;45.26
62600;BME280;48671;48.922;2.346;2023-03-01T00:47:43;102538.69;;;3.20;44.39
62600;BME280;48671;48.922;2.346;2023-03-01T00:50:09;102540.47;;;3.22;44.75
62600;BME280;48671;48.922;2.346;2023-03-01T00:52:34;102545.34;;;3.10;45.10
62600;BME280;48671;48.922;2.346;2023-03-01T00:54:59;102548.78;;;3.09;45.52
62600;BME280;48671;48.922;2.346;2023-03-01T00:57:25;102530.56;;;3.00;45.75
62600;BME280;48671;48.922;2.346;2023-03-01T00:59:50;102546.06;;;3.03;44.88
62600;BME280;48671;48.922;2.346;2023-03-01T01:02:18;102552.06;;;3.03;45.52
62600;BME280;48671;48.922;2.346;2023-03-01T01:04:43;102542.56;;;2.99;45.32
62600;BME280;48671;48.922;2.346;2023-03-01T01:07:08;102535.75;;;3.01;45.50
62600;BME280;48671;48.922;2.346;2023-03-01T01:09:34;102534.91;;;3.01;45.46
62600;BME280;48671;48.922;2.346;2023-03-01T01:11:59;102523.34;;;2.84;45.82
62600;BME280;48671;48.922;2.346;2023-03-01T01:14:24;102525.91;;;2.82;45.89
62600;BME280;48671;48.922;2.346;2023-03-01T01:16:50;102522.56;;;2.86;44.99
62600;BME280;48671;48.922;2.346;2023-03-01T01:19:16;102535.47;;;2.89;45.75
62600;BME280;48671;48.922;2.346;2023-03-01T01:21:41;102537.28;;;2.93;45.62
62600;BME280;48671;48.922;2.346;2023-03-01T01:24:10;102524.34;;;2.89;46.01
62600;BME280;48671;48.922;2.346;2023-03-01T01:26:36;102516.47;;;2.83;46.03
62600;BME280;48671;48.922;2.346;2023-03-01T01:29:03;102508.69;;;2.78;45.86
62600;BME280;48671;48.922;2.346;2023-03-01T01:31:30;102505.34;;;2.84;45.69
62600;BME280;48671;48.922;2.346;2023-03-01T01:33:56;102508.72;;;2.79;45.47
62600;BME280;48671;48.922;2.346;2023-03-01T01:36:22;102520.06;;;2.89;45.68
62600;BME280;48671;48.922;2.346;2023-03-01T01:38:48;102504.47;;;2.81;46.05
62600;BME280;48671;48.922;2.346;2023-03-01T01:41:14;102514.97;;;2.92;45.52
62600;BME280;48671;48.922;2.346;2023-03-01T01:46:31;102516.66;;;2.90;46.35
62600;BME280;48671;48.922;2.346;2023-03-01T01:49:00;102510.69;;;2.93;46.59
62600;BME280;48671;48.922;2.346;2023-03-01T01:51:31;102513.41;;;2.99;46.56
62600;BME280;48671;48.922;2.346;2023-03-01T01:54:08;102511.03;;;3.08;46.49
62600;BME280;48671;48.922;2.346;2023-03-01T01:56:37;102505.84;;;3.07;46.02
62600;BME280;48671;48.922;2.346;2023-03-01T01:59:05;102507.56;;;3.06;46.14
62600;BME280;48671;48.922;2.346;2023-03-01T02:01:31;102499.63;;;2.95;45.74
62600;BME280;48671;48.922;2.346;2023-03-01T02:03:56;102506.50;;;2.96;46.03
62600;BME280;48671;48.922;2.346;2023-03-01T02:06:27;102500.56;;;3.00;46.33
62600;BME280;48671;48.922;2.346;2023-03-01T02:08:57;102504.03;;;3.01;45.43
62600;BME280;48671;48.922;2.346;2023-03-01T02:11:24;102502.19;;;2.95;45.79
62600;BME280;48671;48.922;2.346;2023-03-01T02:13:52;102499.44;;;2.88;46.22
62600;BME280;48671;48.922;2.346;2023-03-01T02:16:19;102499.34;;;2.81;46.42
62600;BME280;48671;48.922;2.346;2023-03-01T02:18:45;102470.72;;;2.68;46.20
62600;BME280;48671;48.922;2.346;2023-03-01T02:21:45;102486.44;;;2.80;46.42
62600;BME280;48671;48.922;2.346;2023-03-01T02:26:56;102488.13;;;2.79;46.09
62600;BME280;48671;48.922;2.346;2023-03-01T02:29:23;102488.78;;;2.69;46.97
62600;BME280;48671;48.922;2.346;2023-03-01T02:31:51;102483.44;;;2.60;46.42
62600;BME280;48671;48.922;2.346;2023-03-01T02:34:23;102481.56;;;2.54;46.39
62600;BME280;48671;48.922;2.346;2023-03-01T02:37:12;102492.78;;;2.56;46.93
62600;BME280;48671;48.922;2.346;2023-03-01T02:39:47;102482.34;;;2.50;46.76
62600;BME280;48671;48.922;2.346;2023-03-01T02:42:21;102484.13;;;2.53;47.10
62600;BME280;48671;48.922;2.346;2023-03-01T02:44:49;102473.78;;;2.50;46.35
62600;BME280;48671;48.922;2.346;2023-03-01T02:47:14;102478.16;;;2.54;46.86
62600;BME280;48671;48.922;2.346;2023-03-01T02:49:40;102478.06;;;2.49;47.86
62600;BME280;48671;48.922;2.346;2023-03-01T02:55:09;102463.50;;;2.50;47.32
62600;BME280;48671;48.922;2.346;2023-03-01T02:57:38;102464.38;;;2.50;47.23
62600;BME280;48671;48.922;2.346;2023-03-01T03:00:08;102465.22;;;2.49;47.10
62600;BME280;48671;48.922;2.346;2023-03-01T03:02:35;102458.28;;;2.45;47.15
62600;BME280;48671;48.922;2.346;2023-03-01T03:05:15;102454.00;;;2.47;47.13
62600;BME280;48671;48.922;2.346;2023-03-01T03:07:45;102454.06;;;2.49;47.63
62600;BME280;48671;48.922;2.346;2023-03-01T03:10:18;102456.63;;;2.49;47.11
62600;BME280;48671;48.922;2.346;2023-03-01T03:12:49;102451.50;;;2.49;48.03
62600;BME280;48671;48.922;2.346;2023-03-01T03:15:15;102445.47;;;2.48;47.24
62600;BME280;48671;48.922;2.346;2023-03-01T03:17:42;102447.22;;;2.49;46.69
62600;BME280;48671;48.922;2.346;2023-03-01T03:20:09;102449.66;;;2.43;47.15
62600;BME280;48671;48.922;2.346;2023-03-01T03:22:38;102435.03;;;2.41;47.71
62600;BME280;48671;48.922;2.346;2023-03-01T03:25:04;102448.81;;;2.44;47.72
62600;BME280;48671;48.922;2.346;2023-03-01T03:27:30;102447.91;;;2.42;47.83
62600;BME280;48671;48.922;2.346;2023-03-01T03:29:57;102451.28;;;2.40;46.80
62600;BME280;48671;48.922;2.346;2023-03-01T03:32:22;102454.63;;;2.36;48.42
62600;BME280;48671;48.922;2.346;2023-03-01T03:34:47;102451.13;;;2.33;48.15
62600;BME280;48671;48.922;2.346;2023-03-01T03:37:13;102426.16;;;2.26;48.63
62600;BME280;48671;48.922;2.346;2023-03-01T03:39:58;102441.59;;;2.28;47.93
62600;BME280;48671;48.922;2.346;2023-03-01T03:42:24;102443.94;;;2.19;48.33
62600;BME280;48671;48.922;2.346;2023-03-01T03:44:49;102445.63;;;2.18;47.71
62600;BME280;48671;48.922;2.346;2023-03-01T03:47:14;102443.91;;;2.17;48.79
62600;BME280;48671;48.922;2.346;2023-03-01T03:49:40;102440.28;;;2.09;48.10
62600;BME280;48671;48.922;2.346;2023-03-01T03:52:05;102427.97;;;1.96;48.21
62600;BME280;48671;48.922;2.346;2023-03-01T03:54:39;102431.22;;;1.88;48.19
62600;BME280;48671;48.922;2.346;2023-03-01T03:57:04;102425.22;;;1.86;48.71
62600;BME280;48671;48.922;2.346;2023-03-01T03:59:29;102426.00;;;1.84;48.55
62600;BME280;48671;48.922;2.346;2023-03-01T04:01:55;102427.66;;;1.82;49.57
62600;BME280;48671;48.922;2.346;2023-03-01T04:04:20;102426.75;;;1.80;48.68
62600;BME280;48671;48.922;2.346;2023-03-01T04:06:46;102432.78;;;1.82;49.23
62600;BME280;48671;48.922;2.346;2023-03-01T04:09:13;102435.34;;;1.82;49.47
62600;BME280;48671;48.922;2.346;2023-03-01T04:11:38;102439.63;;;1.83;49.71
62600;BME280;48671;48.922;2.346;2023-03-01T04:14:04;102445.75;;;1.86;49.21
62600;BME280;48671;48.922;2.346;2023-03-01T04:16:29;102432.84;;;1.83;49.18
62600;BME280;48671;48.922;2.346;2023-03-01T04:18:55;102428.41;;;1.78;49.48
62600;BME280;48671;48.922;2.346;2023-03-01T04:21:20;102436.22;;;1.82;49.00
62600;BME280;48671;48.922;2.346;2023-03-01T04:23:46;102435.19;;;1.76;49.10
62600;BME280;48671;48.922;2.346;2023-03-01T04:26:11;102432.53;;;1.73;49.50
62600;BME280;48671;48.922;2.346;2023-03-01T04:28:40;102430.13;;;1.79;49.12
62600;BME280;48671;48.922;2.346;2023-03-01T04:31:11;102433.53;;;1.78;49.64
62600;BME280;48671;48.922;2.346;2023-03-01T04:33:45;102422.34;;;1.76;49.17
62600;BME280;48671;48.922;2.346;2023-03-01T04:36:12;102429.94;;;1.71;50.44
62600;BME280;48671;48.922;2.346;2023-03-01T04:38:39;102418.78;;;1.69;49.77
62600;BME280;48671;48.922;2.346;2023-03-01T04:41:09;102424.63;;;1.63;49.64
62600;BME280;48671;48.922;2.346;2023-03-01T04:43:35;102415.97;;;1.60;49.61
62600;BME280;48671;48.922;2.346;2023-03-01T04:46:06;102422.00;;;1.62;49.97
62600;BME280;48671;48.922;2.346;2023-03-01T04:48:33;102410.81;;;1.58;50.41
62600;BME280;48671;48.922;2.346;2023-03-01T04:50:59;102415.25;;;1.64;50.39
62600;BME280;48671;48.922;2.346;2023-03-01T04:53:26;102406.53;;;1.59;50.55
62600;BME280;48671;48.922;2.346;2023-03-01T04:55:51;102411.84;;;1.65;50.38
62600;BME280;48671;48.922;2.346;2023-03-01T04:58:17;102403.34;;;1.68;50.34
62600;BME280;48671;48.922;2.346;2023-03-01T05:00:42;102403.38;;;1.69;50.15
62600;BME280;48671;48.922;2.346;2023-03-01T05:03:08;102415.56;;;1.78;50.76
62600;BME280;48671;48.922;2.346;2023-03-01T05:05:37;102410.53;;;1.82;50.63
62600;BME280;48671;48.922;2.346;2023-03-01T05:08:05;102412.38;;;1.86;50.34
62600;BME280;48671;48.922;2.346;2023-03-01T05:10:33;102414.94;;;1.86;50.39
62600;BME280;48671;48.922;2.346;2023-03-01T05:12:59;102413.19;;;1.85;50.59
62600;BME280;48671;48.922;2.346;2023-03-01T05:15:27;102406.34;;;1.86;50.58
62600;BME280;48671;48.922;2.346;2023-03-01T05:17:53;102400.25;;;1.81;50.92
62600;BME280;48671;48.922;2.346;2023-03-01T05:20:19;102414.91;;;1.85;50.45
62600;BME280;48671;48.922;2.346;2023-03-01T05:22:48;102415.66;;;1.81;50.34
62600;BME280;48671;48.922;2.346;2023-03-01T05:25:13;102418.16;;;1.79;50.40
62600;BME280;48671;48.922;2.346;2023-03-01T05:27:39;102400.88;;;1.71;50.31
62600;BME280;48671;48.922;2.346;2023-03-01T05:30:04;102396.50;;;1.68;50.46
62600;BME280;48671;48.922;2.346;2023-03-01T05:32:42;102405.13;;;1.70;51.01
62600;BME280;48671;48.922;2.346;2023-03-01T05:35:12;102405.13;;;1.70;51.13
62600;BME280;48671;48.922;2.346;2023-03-01T05:37:39;102390.53;;;1.69;50.68
62600;BME280;48671;48.922;2.346;2023-03-01T05:40:05;102393.97;;;1.70;50.64
62600;BME280;48671;48.922;2.346;2023-03-01T05:42:30;102393.09;;;1.68;51.14
62600;BME280;48671;48.922;2.346;2023-03-01T05:44:56;102400.72;;;1.66;50.98
62600;BME280;48671;48.922;2.346;2023-03-01T05:47:21;102398.94;;;1.62;50.91
62600;BME280;48671;48.922;2.346;2023-03-01T05:49:47;102391.06;;;1.54;51.19
62600;BME280;48671;48.922;2.346;2023-03-01T05:52:12;102394.34;;;1.50;51.50
62600;BME280;48671;48.922;2.346;2023-03-01T05:54:37;102376.03;;;1.36;51.44
62600;BME280;48671;48.922;2.346;2023-03-01T05:57:03;102400.91;;;1.39;51.47
62600;BME280;48671;48.922;2.346;2023-03-01T05:59:29;102386.81;;;1.23;51.34
62600;BME280;48671;48.922;2.346;2023-03-01T06:01:54;102391.00;;;1.20;51.78
62600;BME280;48671;48.922;2.346;2023-03-01T06:04:19;102400.50;;;1.24;51.49
62600;BME280;48671;48.922;2.346;2023-03-01T06:06:45;102396.00;;;1.15;51.62
62600;BME280;48671;48.922;2.346;2023-03-01T06:09:10;102390.72;;;1.09;52.80
62600;BME280;48671;48.922;2.346;2023-03-01T06:11:36;102390.00;;;1.14;52.25
62600;BME280;48671;48.922;2.346;2023-03-01T06:14:02;102390.56;;;1.04;52.54
62600;BME280;48671;48.922;2.346;2023-03-01T06:16:27;102379.34;;;0.99;52.38
62600;BME280;48671;48.922;2.346;2023-03-01T06:18:53;102371.41;;;0.91;52.92
62600;BME280;48671;48.922;2.346;2023-03-01T06:21:18;102377.63;;;1.00;53.27
62600;BME280;48671;48.922;2.346;2023-03-01T06:23:43;102381.91;;;0.99;52.23
62600;BME280;48671;48.922;2.346;2023-03-01T06:26:09;102375.91;;;0.99;52.57
62600;BME280;48671;48.922;2.346;2023-03-01T06:28:35;102381.84;;;0.98;53.13
62600;BME280;48671;48.922;2.346;2023-03-01T06:31:00;102367.00;;;0.86;53.57
62600;BME280;48671;48.922;2.346;2023-03-01T06:33:26;102391.13;;;0.92;53.97
62600;BME280;48671;48.922;2.346;2023-03-01T06:35:54;102336.69;;;0.71;53.03
62600;BME280;48671;48.922;2.346;2023-03-01T06:38:19;102367.88;;;0.86;53.11
62600;BME280;48671;48.922;2.346;2023-03-01T06:40:51;102380.00;;;0.92;53.61
62600;BME280;48671;48.922;2.346;2023-03-01T06:43:16;102373.88;;;0.87;53.54
62600;BME280;48671;48.922;2.346;2023-03-01T06:45:42;102383.28;;;0.88;54.25
62600;BME280;48671;48.922;2.346;2023-03-01T06:48:08;102370.16;;;0.76;54.10
62600;BME280;48671;48.922;2.346;2023-03-01T06:50:34;102363.59;;;0.85;54.21
62600;BME280;48671;48.922;2.346;2023-03-01T06:53:00;102365.22;;;0.83;53.42
62600;BME280;48671;48.922;2.346;2023-03-01T06:55:25;102356.59;;;0.80;54.12
62600;BME280;48671;48.922;2.346;2023-03-01T06:57:58;102364.56;;;0.90;53.59
62600;BME280;48671;48.922;2.346;2023-03-01T07:00:24;102349.81;;;0.82;53.69
62600;BME280;48671;48.922;2.346;2023-03-01T07:02:50;102347.19;;;0.79;53.97
62600;BME280;48671;48.922;2.346;2023-03-01T07:05:15;102358.50;;;0.87;54.39
62600;BME280;48671;48.922;2.346;2023-03-01T07:07:41;102340.28;;;0.76;54.42
62600;BME280;48671;48.922;2.346;2023-03-01T07:10:06;102363.91;;;0.98;54.42
62600;BME280;48671;48.922;2.346;2023-03-01T07:12:32;102352.75;;;0.96;54.54
62600;BME280;48671;48.922;2.346;2023-03-01T07:14:58;102352.00;;;1.00;53.88
62600;BME280;48671;48.922;2.346;2023-03-01T07:17:23;102352.03;;;1.01;54.90
62600;BME280;48671;48.922;2.346;2023-03-01T07:19:48;102355.78;;;1.14;54.94
62600;BME280;48671;48.922;2.346;2023-03-01T07:22:14;102362.16;;;1.28;54.22
62600;BME280;48671;48.922;2.346;2023-03-01T07:24:41;102361.50;;;1.37;54.01
62600;BME280;48671;48.922;2.346;2023-03-01T07:27:06;102347.03;;;1.39;53.97
62600;BME280;48671;48.922;2.346;2023-03-01T07:29:31;102352.81;;;1.63;53.36
62600;BME280;48671;48.922;2.346;2023-03-01T07:31:57;102341.19;;;1.79;53.76
62600;BME280;48671;48.922;2.346;2023-03-01T07:34:23;102356.09;;;2.33;53.24
62600;BME280;48671;48.922;2.346;2023-03-01T07:36:48;102342.25;;;2.68;52.96
62600;BME280;48671;48.922;2.346;2023-03-01T07:39:14;102330.06;;;3.03;51.69
62600;BME280;48671;48.922;2.346;2023-03-01T07:41:39;102353.31;;;3.59;51.11
62600;BME280;48671;48.922;2.346;2023-03-01T07:44:04;102342.72;;;3.95;50.56
62600;BME280;48671;48.922;2.346;2023-03-01T07:46:30;102344.03;;;4.27;49.16
62600;BME280;48671;48.922;2.346;2023-03-01T07:48:55;102339.19;;;4.48;49.17
62600;BME280;48671;48.922;2.346;2023-03-01T07:51:20;102348.94;;;4.77;48.67
62600;BME280;48671;48.922;2.346;2023-03-01T07:53:47;102333.72;;;4.98;48.32
62600;BME280;48671;48.922;2.346;2023-03-01T07:56:14;102345.28;;;5.37;47.68
62600;BME280;48671;48.922;2.346;2023-03-01T07:58:43;102347.22;;;5.64;46.88
62600;BME280;48671;48.922;2.346;2023-03-01T08:01:11;102336.19;;;5.88;46.10
62600;BME280;48671;48.922;2.346;2023-03-01T08:03:37;102346.69;;;6.08;46.22
62600;BME280;48671;48.922;2.346;2023-03-01T08:06:05;102346.78;;;6.20;46.27
62600;BME280;48671;48.922;2.346;2023-03-01T08:08:31;102350.22;;;6.21;45.28
62600;BME280;48671;48.922;2.346;2023-03-01T08:10:57;102352.84;;;6.25;45.09
62600;BME280;48671;48.922;2.346;2023-03-01T08:13:23;102339.84;;;6.12;45.01
62600;BME280;48671;48.922;2.346;2023-03-01T08:15:49;102344.13;;;6.09;45.42
62600;BME280;48671;48.922;2.346;2023-03-01T08:18:16;102339.88;;;6.16;45.36
62600;BME280;48671;48.922;2.346;2023-03-01T08:20:41;102348.53;;;6.21;45.17
62600;BME280;48671;48.922;2.346;2023-03-01T08:23:07;102341.56;;;6.14;44.47
62600;BME280;48671;48.922;2.346;2023-03-01T08:25:32;102347.63;;;6.16;44.83
62600;BME280;48671;48.922;2.346;2023-03-01T08:27:57;102338.94;;;6.05;44.80
62600;BME280;48671;48.922;2.346;2023-03-01T08:30:23;102350.09;;;5.96;44.72
62600;BME280;48671;48.922;2.346;2023-03-01T08:32:49;102355.03;;;5.72;45.29
62600;BME280;48671;48.922;2.346;2023-03-01T08:35:15;102353.94;;;5.44;45.75
62600;BME280;48671;48.922;2.346;2023-03-01T08:37:40;102347.75;;;5.25;45.77
62600;BME280;48671;48.922;2.346;2023-03-01T08:40:06;102348.41;;;5.05;46.05
62600;BME280;48671;48.922;2.346;2023-03-01T08:42:32;102330.19;;;4.88;46.17
62600;BME280;48671;48.922;2.346;2023-03-01T08:44:57;102328.34;;;4.80;46.40
62600;BME280;48671;48.922;2.346;2023-03-01T08:47:23;102336.03;;;4.74;46.55
62600;BME280;48671;48.922;2.346;2023-03-01T08:49:50;102340.22;;;4.64;46.29
62600;BME280;48671;48.922;2.346;2023-03-01T08:52:16;102315.06;;;4.43;46.58
62600;BME280;48671;48.922;2.346;2023-03-01T08:54:41;102325.41;;;4.47;46.53
62600;BME280;48671;48.922;2.346;2023-03-01T08:57:06;102324.66;;;4.56;47.15
62600;BME280;48671;48.922;2.346;2023-03-01T08:59:31;102315.31;;;4.66;47.33
62600;BME280;48671;48.922;2.346;2023-03-01T09:02:02;102311.16;;;4.80;46.94
62600;BME280;48671;48.922;2.346;2023-03-01T09:04:27;102312.16;;;4.91;46.91
62600;BME280;48671;48.922;2.346;2023-03-01T09:06:53;102300.22;;;5.03;46.53
62600;BME280;48671;48.922;2.346;2023-03-01T09:09:18;102290.81;;;5.05;45.91
62600;BME280;48671;48.922;2.346;2023-03-01T09:11:44;102306.34;;;5.11;46.15
62600;BME280;48671;48.922;2.346;2023-03-01T09:14:14;102295.22;;;5.20;46.31
62600;BME280;48671;48.922;2.346;2023-03-01T09:16:39;102284.03;;;5.18;46.36
62600;BME280;48671;48.922;2.346;2023-03-01T09:19:05;102295.25;;;5.23;46.24
62600;BME280;48671;48.922;2.346;2023-03-01T09:21:30;102285.78;;;5.20;46.27
62600;BME280;48671;48.922;2.346;2023-03-01T09:23:57;102275.41;;;5.15;45.66
62600;BME280;48671;48.922;2.346;2023-03-01T09:26:23;102287.47;;;5.20;46.06
62600;BME280;48671;48.922;2.346;2023-03-01T09:28:52;102283.22;;;5.26;46.14
62600;BME280;48671;48.922;2.346;2023-03-01T09:31:20;102273.00;;;5.35;45.93
62600;BME280;48671;48.922;2.346;2023-03-01T09:33:47;102267.84;;;5.37;45.88
62600;BME280;48671;48.922;2.346;2023-03-01T09:36:18;102268.75;;;5.45;45.51
62600;BME280;48671;48.922;2.346;2023-03-01T09:38:46;102268.00;;;5.57;45.38
62600;BME280;48671;48.922;2.346;2023-03-01T09:43:56;102274.06;;;5.65;45.64
62600;BME280;48671;48.922;2.346;2023-03-01T09:46:25;102273.28;;;5.77;45.33
62600;BME280;48671;48.922;2.346;2023-03-01T09:48:56;102263.00;;;5.87;45.03
62600;BME280;48671;48.922;2.346;2023-03-01T09:51:26;102265.69;;;6.00;45.58
62600;BME280;48671;48.922;2.346;2023-03-01T09:53:52;102265.78;;;6.12;44.93
62600;BME280;48671;48.922;2.346;2023-03-01T09:56:24;102263.19;;;6.12;44.85
62600;BME280;48671;48.922;2.346;2023-03-01T09:59:18;102258.81;;;6.03;44.51
62600;BME280;48671;48.922;2.346;2023-03-01T10:04:48;102253.75;;;6.26;44.61
62600;BME280;48671;48.922;2.346;2023-03-01T10:07:37;102253.81;;;6.43;44.14
62600;BME280;48671;48.922;2.346;2023-03-01T10:10:17;102249.50;;;6.47;43.69
62600;BME280;48671;48.922;2.346;2023-03-01T10:12:49;102249.56;;;6.54;43.43
62600;BME280;48671;48.922;2.346;2023-03-01T10:15:18;102242.66;;;6.55;43.20
62600;BME280;48671;48.922;2.346;2023-03-01T10:20:18;102234.03;;;6.64;43.74
62600;BME280;48671;48.922;2.346;2023-03-01T10:22:44;102221.97;;;6.60;43.99
62600;BME280;48671;48.922;2.346;2023-03-01T10:25:17;102222.84;;;6.62;43.98
62600;BME280;48671;48.922;2.346;2023-03-01T10:27:53;102236.63;;;6.70;43.65
62600;BME280;48671;48.922;2.346;2023-03-01T10:30:20;102228.88;;;6.76;44.10
62600;BME280;48671;48.922;2.346;2023-03-01T10:32:49;102225.44;;;6.83;43.50
62600;BME280;48671;48.922;2.346;2023-03-01T10:35:27;102221.16;;;6.87;43.17
62600;BME280;48671;48.922;2.346;2023-03-01T10:38:13;102214.25;;;6.95;42.31
62600;BME280;48671;48.922;2.346;2023-03-01T10:40:59;102220.28;;;7.08;42.70
62600;BME280;48671;48.922;2.346;2023-03-01T10:43:43;102209.94;;;7.09;42.65
62600;BME280;48671;48.922;2.346;2023-03-01T10:46:30;102214.22;;;7.22;43.15
62600;BME280;48671;48.922;2.346;2023-03-01T10:49:06;102212.50;;;7.40;42.48
62600;BME280;48671;48.922;2.346;2023-03-01T10:51:32;102203.81;;;7.55;42.38
62600;BME280;48671;48.922;2.346;2023-03-01T10:53:58;102207.25;;;7.70;42.36
62600;BME280;48671;48.922;2.346;2023-03-01T10:56:23;102199.47;;;7.75;41.09
62600;BME280;48671;48.922;2.346;2023-03-01T10:59:03;102206.31;;;7.96;41.97
62600;BME280;48671;48.922;2.346;2023-03-01T11:01:31;102199.31;;;8.12;41.91
62600;BME280;48671;48.922;2.346;2023-03-01T11:06:36;102192.28;;;8.41;41.54
62600;BME280;48671;48.922;2.346;2023-03-01T11:09:15;102198.25;;;8.54;40.65
62600;BME280;48671;48.922;2.346;2023-03-01T11:11:41;102196.47;;;8.64;40.28
62600;BME280;48671;48.922;2.346;2023-03-01T11:14:15;102185.22;;;8.66;39.88
62600;BME280;48671;48.922;2.346;2023-03-01T11:16:43;102190.28;;;8.79;40.16
62600;BME280;48671;48.922;2.346;2023-03-01T11:21:37;102175.25;;;9.18;39.65
62600;BME280;48671;48.922;2.346;2023-03-01T11:24:08;102180.28;;;9.36;39.49
62600;BME280;48671;48.922;2.346;2023-03-01T11:26:39;102174.84;;;9.54;39.44
62600;BME280;48671;48.922;2.346;2023-03-01T11:29:13;102165.38;;;9.52;38.72
62600;BME280;48671;48.922;2.346;2023-03-01T11:31:42;102167.84;;;9.63;38.64
62600;BME280;48671;48.922;2.346;2023-03-01T11:34:14;102177.28;;;9.71;38.67
62600;BME280;48671;48.922;2.346;2023-03-01T11:36:46;102166.78;;;9.79;37.91
62600;BME280;48671;48.922;2.346;2023-03-01T11:39:40;102152.94;;;9.78;36.44
62600;BME280;48671;48.922;2.346;2023-03-01T11:42:15;102158.22;;;9.72;38.13
62600;BME280;48671;48.922;2.346;2023-03-01T11:44:43;102155.50;;;9.80;38.12
62600;BME280;48671;48.922;2.346;2023-03-01T11:50:07;102152.66;;;10.01;37.17
62600;BME280;48671;48.922;2.346;2023-03-01T11:53:05;102155.91;;;10.16;37.75
62600;BME280;48671;48.922;2.346;2023-03-01T11:55:48;102148.91;;;10.19;36.53
62600;BME280;48671;48.922;2.346;2023-03-01T12:01:23;102132.16;;;10.42;37.37
62600;BME280;48671;48.922;2.346;2023-03-01T12:06:55;102126.03;;;10.97;36.79
62600;BME280;48671;48.922;2.346;2023-03-01T12:12:17;102110.66;;;11.30;36.27
62600;BME280;48671;48.922;2.346;2023-03-01T12:17:51;102111.97;;;11.52;35.56
62600;BME280;48671;48.922;2.346;2023-03-01T12:20:37;102102.16;;;11.63;36.12
62600;BME280;48671;48.922;2.346;2023-03-01T12:23:34;102102.22;;;11.60;35.14
62600;BME280;48671;48.922;2.346;2023-03-01T12:26:20;102098.97;;;11.49;35.26
62600;BME280;48671;48.922;2.346;2023-03-01T12:37:18;102094.09;;;11.76;34.24
62600;BME280;48671;48.922;2.346;2023-03-01T12:40:02;102077.47;;;11.80;35.28
62600;BME280;48671;48.922;2.346;2023-03-01T12:42:53;102087.78;;;11.44;34.89
62600;BME280;48671;48.922;2.346;2023-03-01T12:50:54;102060.91;;;10.50;35.85
62600;BME280;48671;48.922;2.346;2023-03-01T12:53:24;102065.72;;;10.18;35.66
62600;BME280;48671;48.922;2.346;2023-03-01T12:55:53;102064.28;;;9.97;36.48
62600;BME280;48671;48.922;2.346;2023-03-01T12:58:25;102051.44;;;9.88;36.70
62600;BME280;48671;48.922;2.346;2023-03-01T13:01:32;102042.03;;;9.79;36.72
62600;BME280;48671;48.922;2.346;2023-03-01T13:06:47;102040.44;;;9.67;37.22
62600;BME280;48671;48.922;2.346;2023-03-01T13:18:01;102000.28;;;10.90;36.34
62600;BME280;48671;48.922;2.346;2023-03-01T13:20:33;102003.84;;;11.30;35.16
62600;BME280;48671;48.922;2.346;2023-03-01T13:25:33;101991.38;;;12.18;33.96
62600;BME280;48671;48.922;2.346;2023-03-01T13:30:59;101978.59;;;12.44;34.11
62600;BME280;48671;48.922;2.346;2023-03-01T13:35:54;101975.09;;;12.76;34.05
62600;BME280;48671;48.922;2.346;2023-03-01T13:41:08;101980.47;;;13.01;33.62
62600;BME280;48671;48.922;2.346;2023-03-01T13:43:36;101969.66;;;13.15;33.22
62600;BME280;48671;48.922;2.346;2023-03-01T13:46:11;101961.00;;;13.42;33.53
62600;BME280;48671;48.922;2.346;2023-03-01T13:48:39;101966.97;;;13.47;31.74
62600;BME280;48671;48.922;2.346;2023-03-01T13:51:08;101963.47;;;13.47;31.53
62600;BME280;48671;48.922;2.346;2023-03-01T13:53:46;101947.41;;;13.31;32.03
62600;BME280;48671;48.922;2.346;2023-03-01T13:56:13;101947.53;;;13.26;32.19
62600;BME280;48671;48.922;2.346;2023-03-01T14:01:34;101929.84;;;13.63;32.48
62600;BME280;48671;48.922;2.346;2023-03-01T14:04:16;101924.94;;;13.80;32.18
62600;BME280;48671;48.922;2.346;2023-03-01T14:06:43;101925.44;;;13.91;31.71
62600;BME280;48671;48.922;2.346;2023-03-01T14:09:19;101925.94;;;13.76;31.79
62600;BME280;48671;48.922;2.346;2023-03-01T14:19:37;101915.22;;;13.57;31.50
62600;BME280;48671;48.922;2.346;2023-03-01T14:22:28;101918.31;;;13.42;32.40
62600;BME280;48671;48.922;2.346;2023-03-01T14:25:01;101917.47;;;13.41;32.38
62600;BME280;48671;48.922;2.346;2023-03-01T14:27:32;101915.72;;;13.42;32.27
62600;BME280;48671;48.922;2.346;2023-03-01T14:30:01;101900.88;;;13.42;32.65
62600;BME280;48671;48.922;2.346;2023-03-01T14:32:30;101903.34;;;13.17;31.92